الصفحة الرئيسية
METAR-TAF:

METAR-TAF

مطار :

كونمينغ, جمهورية الصين الشعبية

مطار كونمينغ جانغشوي الدولي

دائرة عرض: 25-01N, خط طول: 102-41E, ارتفاع: 1892 متر

مراقبة الطقس الحالي

تاريخ ووقت الإصدار 20 دقيقة قبل الساعة 07:00UTC
ريح 16 عقدة من الجنوب الغربي, الاتجاه يتراوح بين الجنوب و الغرب/الجنوب الغربي
درجة الحرارة 16°درجة مئوية
الرطوبة 42%
ضغط 1019 hPa
الرؤية 10 كم أو أكثر
الغيوم لا تقل 1500 م ولا وجود لمزنة ركامية السحاب الأسود

METAR: ZPPP 190700Z 22008MPS 180V240 CAVOK 16/03 Q1019 NOSIG

زمن: 15:20 (07:20 UTC)

توقعات

تاريخ ووقت الإصدار 6ساعات و 9 دقيقة قبل الساعة 01:11UTC
التوقعات صالحة من19 الساعة 06 UTC إلى 20 الساعة 06 UTC
ريح 14 عقدة من الجنوب الغربي
الرؤية 10 كم أو أكثر
غيوم متفرقة على ارتفاع 2600 قدم

TAF: ZPPP 190111Z 1906/2006 22007MPS 9999 SCT026 TX15/1908Z TN04/1923Z

أرصاد الطقس والتوقعات من أكثر من 4000 مطار (تقارير الطقس للمطار METAR والتنبؤ بالطقس بالمطارTAF).

المحطات المتاحة هي النقط الصفراء والحمراء على الخريطة.

حرك المؤشر فوق النقطة لمعرفة اسم المحطة.

ثم انقر لمعرفة أرصاد وتوقعات الطقس.

لتغيير الخارطة: اضغط على الأزرار الخضراء مع رمز الصليب الأسود للتكبير. على الزر الأخضر مع شرطة للتصغير، أو على الأسهم الخضراء للخرائط المجاورة.


METAR-TAF: